Time;durP1;ratioP1;P1;durP2;ratioP2;P2;SDS_P1;SDS_P2;PMS_P1;PMS_P2;Temp;Humidity;BMP_temperature;BMP_pressure;BME280_temperature;BME280_humidity;BME280_pressure;Samples;Min_cycle;Max_cycle;Signal;HPM_P1;HPM_P2
2022/08/20 00:00:24;;;;;;;8.00;6.23;;;26.50;47.40;;;;;;5063613;28;20500;-86
2022/08/20 00:02:55;;;;;;;7.10;6.40;;;26.40;47.00;;;;;;5087022;28;20559;-87
2022/08/20 00:05:24;;;;;;;7.10;6.40;;;26.40;47.30;;;;;;5083150;28;20562;-87
2022/08/20 00:07:52;;;;;;;7.93;7.13;;;26.20;47.00;;;;;;5079816;28;20505;-89
2022/08/20 00:10:19;;;;;;;7.10;6.40;;;26.20;47.40;;;;;;5093642;28;20864;-86
2022/08/20 00:12:48;;;;;;;7.10;6.30;;;26.30;46.80;;;;;;5080786;28;20466;-85
2022/08/20 00:15:20;;;;;;;7.23;6.53;;;25.80;47.20;;;;;;5078734;28;20522;-86
2022/08/20 00:17:49;;;;;;;7.57;6.77;;;25.60;47.60;;;;;;5085205;28;20608;-86
2022/08/20 00:20:20;;;;;;;6.97;6.37;;;25.60;47.90;;;;;;5044769;28;20454;-88
2022/08/20 00:22:47;;;;;;;7.53;6.83;;;25.80;48.00;;;;;;5074685;28;20558;-88
2022/08/20 00:25:15;;;;;;;6.80;6.20;;;25.90;47.70;;;;;;5075507;28;20538;-86
2022/08/20 00:27:43;;;;;;;7.53;6.70;;;26.00;47.20;;;;;;5075732;28;21016;-88
2022/08/20 00:30:12;;;;;;;7.07;6.37;;;26.00;46.90;;;;;;5073326;28;20487;-87
2022/08/20 00:32:44;;;;;;;8.43;7.63;;;26.00;47.10;;;;;;5073485;28;20478;-89
2022/08/20 00:35:12;;;;;;;7.63;6.73;;;26.10;46.60;;;;;;5049983;28;21223;-89
2022/08/20 00:37:40;;;;;;;7.57;6.90;;;26.10;46.70;;;;;;5044559;28;20871;-88
2022/08/20 00:40:10;;;;;;;7.43;6.70;;;25.90;46.40;;;;;;5077442;28;20435;-88
2022/08/20 00:42:42;;;;;;;8.73;6.90;;;25.80;47.20;;;;;;5091162;28;20460;-86
2022/08/20 00:45:10;;;;;;;6.50;5.90;;;25.80;47.20;;;;;;5084805;28;20512;-87
2022/08/20 00:47:39;;;;;;;7.43;6.73;;;25.70;47.20;;;;;;5089597;28;20459;-87
2022/08/20 00:50:07;;;;;;;7.37;6.67;;;25.70;46.60;;;;;;5084439;28;20451;-88
2022/08/20 00:52:35;;;;;;;8.37;6.97;;;25.70;46.70;;;;;;5062546;28;20475;-88
2022/08/20 00:55:06;;;;;;;7.30;6.60;;;25.80;46.60;;;;;;5058343;28;20455;-87
2022/08/20 00:57:41;;;;;;;7.73;7.03;;;25.80;46.50;;;;;;5075718;28;20463;-87
2022/08/20 01:00:15;;;;;;;7.43;6.70;;;25.70;46.90;;;;;;5061812;28;20459;-87
2022/08/20 01:02:43;;;;;;;11.83;7.50;;;25.70;47.60;;;;;;5093434;28;20503;-86
2022/08/20 01:05:11;;;;;;;6.97;6.33;;;25.60;48.00;;;;;;5066234;28;20528;-87
2022/08/20 01:07:39;;;;;;;8.47;6.43;;;25.60;48.20;;;;;;5046326;28;20920;-88
2022/08/20 01:10:12;;;;;;;7.47;6.80;;;25.50;48.40;;;;;;5066433;28;20436;-87
2022/08/20 01:12:42;;;;;;;7.97;7.17;;;25.50;48.40;;;;;;5049106;28;20487;-88
2022/08/20 01:15:12;;;;;;;8.33;7.53;;;25.60;48.10;;;;;;5075064;28;20500;-89
2022/08/20 01:17:44;;;;;;;8.57;7.30;;;25.60;47.80;;;;;;5081137;28;20448;-86
2022/08/20 01:20:15;;;;;;;8.53;7.70;;;25.40;47.10;;;;;;5050823;28;20444;-86
2022/08/20 01:25:45;;;;;;;9.70;7.77;;;24.60;48.80;;;;;;5093398;28;20942;-86
2022/08/20 01:28:14;;;;;;;9.20;7.50;;;24.50;48.70;;;;;;5085216;28;20448;-87
2022/08/20 01:30:42;;;;;;;8.20;7.30;;;24.20;49.30;;;;;;5096366;28;20535;-86
2022/08/20 01:33:09;;;;;;;8.70;7.63;;;24.30;49.20;;;;;;5086594;28;21026;-87
2022/08/20 01:35:38;;;;;;;8.20;7.40;;;24.30;49.20;;;;;;5069312;28;20443;-86
2022/08/20 01:38:07;;;;;;;7.70;6.83;;;24.50;49.20;;;;;;5093819;28;20444;-89
2022/08/20 01:40:52;;;;;;;7.83;7.03;;;24.70;48.50;;;;;;5096362;28;20451;-86
2022/08/20 01:43:19;;;;;;;10.53;8.10;;;24.90;48.60;;;;;;5075745;28;20435;-87
2022/08/20 01:45:46;;;;;;;8.60;7.60;;;25.10;48.20;;;;;;5060452;28;20471;-86
2022/08/20 01:48:15;;;;;;;8.70;7.57;;;25.20;47.90;;;;;;5077103;28;20459;-86
2022/08/20 01:50:47;;;;;;;8.27;7.30;;;25.30;48.00;;;;;;5077151;28;20447;-86
2022/08/20 01:53:18;;;;;;;8.07;7.20;;;25.40;47.90;;;;;;5077255;28;20447;-86
2022/08/20 01:55:45;;;;;;;10.03;8.00;;;25.40;47.80;;;;;;5090512;28;20454;-87
2022/08/20 01:58:14;;;;;;;9.43;8.43;;;25.50;48.00;;;;;;5077836;28;20537;-85
2022/08/20 02:00:41;;;;;;;7.10;6.40;;;25.50;48.40;;;;;;5084921;28;20604;-87
2022/08/20 02:03:08;;;;;;;8.20;7.50;;;25.40;47.60;;;;;;5074544;28;20800;-86
2022/08/20 02:05:35;;;;;;;8.27;7.47;;;25.50;47.80;;;;;;5073182;28;20462;-87
2022/08/20 02:08:04;;;;;;;9.50;8.60;;;25.40;48.10;;;;;;5074261;28;20448;-86
2022/08/20 02:10:31;;;;;;;8.40;7.60;;;25.50;48.60;;;;;;5077374;28;20524;-87
2022/08/20 02:12:59;;;;;;;10.30;8.37;;;25.50;48.60;;;;;;5091365;28;20460;-86
2022/08/20 02:15:28;;;;;;;7.50;6.77;;;25.50;48.70;;;;;;5088999;28;20451;-87
2022/08/20 02:17:56;;;;;;;8.87;7.47;;;25.50;48.90;;;;;;5073028;28;20813;-86
2022/08/20 02:20:29;;;;;;;7.60;6.80;;;25.50;49.20;;;;;;5073001;28;20439;-87
2022/08/20 02:22:58;;;;;;;9.00;8.10;;;25.50;49.20;;;;;;5076309;28;20961;-86
2022/08/20 02:25:29;;;;;;;8.50;7.80;;;25.50;49.30;;;;;;5056333;28;20521;-87
2022/08/20 02:28:01;;;;;;;8.33;7.53;;;25.40;49.70;;;;;;5073507;28;20464;-87
2022/08/20 02:30:33;;;;;;;9.40;8.57;;;25.40;49.90;;;;;;5058690;28;20455;-89
2022/08/20 02:33:05;;;;;;;8.10;7.40;;;25.50;50.10;;;;;;5072267;28;20462;-88
2022/08/20 02:35:33;;;;;;;9.10;8.17;;;25.40;50.10;;;;;;5072252;28;20461;-86
2022/08/20 02:38:01;;;;;;;9.47;8.57;;;25.30;50.20;;;;;;5066181;28;20954;-88
2022/08/20 02:40:31;;;;;;;9.50;8.50;;;25.30;50.40;;;;;;5064992;28;20508;-88
2022/08/20 02:42:59;;;;;;;9.17;8.17;;;25.30;50.50;;;;;;5074070;28;20907;-86
2022/08/20 02:45:27;;;;;;;9.40;8.50;;;25.20;50.60;;;;;;5071931;28;20434;-87
2022/08/20 02:47:57;;;;;;;12.17;8.67;;;25.20;50.70;;;;;;5073327;28;20479;-87
2022/08/20 02:50:25;;;;;;;8.53;7.70;;;25.20;50.60;;;;;;5088953;28;20855;-88
2022/08/20 02:52:53;;;;;;;8.20;7.03;;;25.20;50.20;;;;;;5075248;28;20483;-86
2022/08/20 02:55:21;;;;;;;7.17;6.47;;;25.30;49.10;;;;;;5066984;28;20455;-90
2022/08/20 02:57:48;;;;;;;7.80;7.03;;;25.30;48.50;;;;;;5076245;28;20467;-86
2022/08/20 03:00:20;;;;;;;6.77;6.17;;;25.30;47.50;;;;;;5088086;28;20560;-86
2022/08/20 03:02:47;;;;;;;7.17;6.40;;;25.30;47.50;;;;;;5075306;28;20566;-86
2022/08/20 03:05:16;;;;;;;7.53;6.13;;;25.40;47.90;;;;;;5070715;28;20501;-86
2022/08/20 03:07:44;;;;;;;7.60;6.80;;;25.40;47.20;;;;;;5084283;28;20480;-86
2022/08/20 03:10:12;;;;;;;8.53;6.90;;;25.40;47.30;;;;;;5069232;28;20978;-88
2022/08/20 03:12:39;;;;;;;9.40;7.40;;;25.40;47.90;;;;;;5062204;28;21008;-87
2022/08/20 03:15:08;;;;;;;11.30;8.30;;;25.40;47.90;;;;;;5060785;28;20967;-89
2022/08/20 03:17:36;;;;;;;7.90;7.10;;;25.40;48.30;;;;;;5062136;28;20522;-86
2022/08/20 03:20:05;;;;;;;10.43;7.30;;;25.50;48.40;;;;;;5079826;28;20530;-86
2022/08/20 03:22:33;;;;;;;7.43;6.60;;;25.40;48.20;;;;;;5068848;28;21943;-86
2022/08/20 03:25:00;;;;;;;9.30;7.77;;;25.40;48.20;;;;;;5075091;28;20439;-89
2022/08/20 03:27:27;;;;;;;8.80;7.90;;;25.30;48.20;;;;;;5068543;28;20475;-92
2022/08/20 03:29:54;;;;;;;10.67;7.03;;;25.30;48.20;;;;;;5092654;28;20451;-89
2022/08/20 03:32:21;;;;;;;10.73;7.47;;;25.30;48.60;;;;;;5058281;28;20563;-87
2022/08/20 03:34:48;;;;;;;10.00;7.07;;;25.20;48.00;;;;;;5073105;28;20959;-88
2022/08/20 03:37:15;;;;;;;7.57;6.87;;;25.20;48.00;;;;;;5091630;28;20974;-88
2022/08/20 03:39:44;;;;;;;7.43;6.63;;;25.20;48.20;;;;;;5050277;28;21004;-88
2022/08/20 03:42:11;;;;;;;11.63;7.50;;;25.20;48.20;;;;;;5040323;28;20551;-87
2022/08/20 03:44:39;;;;;;;7.90;6.60;;;25.10;48.60;;;;;;5076243;28;20529;-86
2022/08/20 03:47:08;;;;;;;7.17;6.30;;;25.10;48.20;;;;;;5078741;28;20547;-87
2022/08/20 03:49:35;;;;;;;9.17;7.30;;;25.10;48.30;;;;;;5094886;28;20964;-88
2022/08/20 03:52:03;;;;;;;6.87;6.17;;;25.00;48.20;;;;;;5059549;28;20451;-87
2022/08/20 03:54:30;;;;;;;7.30;6.60;;;25.00;48.20;;;;;;5055725;28;20458;-86
2022/08/20 03:57:00;;;;;;;7.30;6.60;;;25.00;48.20;;;;;;5073041;28;20453;-91
2022/08/20 03:59:27;;;;;;;7.20;6.50;;;25.00;48.10;;;;;;5070725;28;20452;-88
2022/08/20 04:01:55;;;;;;;6.90;6.13;;;25.00;48.10;;;;;;5093032;28;20466;-86
2022/08/20 04:04:22;;;;;;;9.17;6.90;;;25.00;48.20;;;;;;5073288;28;20444;-87
2022/08/20 04:06:49;;;;;;;8.20;6.17;;;25.00;48.10;;;;;;5051143;28;20556;-87
2022/08/20 04:09:16;;;;;;;8.20;6.90;;;25.00;48.30;;;;;;5094211;28;20459;-87
2022/08/20 04:11:43;;;;;;;11.40;7.00;;;24.90;48.40;;;;;;5075894;28;20545;-89
2022/08/20 04:14:12;;;;;;;10.50;6.57;;;24.90;48.40;;;;;;5049955;28;21025;-86
2022/08/20 04:16:40;;;;;;;10.80;6.67;;;24.90;48.60;;;;;;5076879;28;20513;-86
2022/08/20 04:19:07;;;;;;;7.73;6.27;;;24.70;49.00;;;;;;5076832;28;20958;-86
2022/08/20 04:21:35;;;;;;;7.70;5.93;;;24.70;48.90;;;;;;5093689;28;20569;-89
2022/08/20 04:24:04;;;;;;;9.13;5.80;;;24.70;49.00;;;;;;5076037;28;20564;-87
2022/08/20 04:26:33;;;;;;;7.33;6.63;;;24.40;49.50;;;;;;5074586;28;20530;-86
2022/08/20 04:29:00;;;;;;;7.07;6.37;;;24.30;50.00;;;;;;5092403;28;20466;-88
2022/08/20 04:31:32;;;;;;;10.17;7.17;;;24.40;50.10;;;;;;5075117;28;20571;-87
2022/08/20 04:34:00;;;;;;;7.60;6.80;;;24.60;49.80;;;;;;5094096;28;20922;-85
2022/08/20 04:36:27;;;;;;;7.77;6.97;;;24.70;49.80;;;;;;5092576;28;20456;-89
2022/08/20 04:38:54;;;;;;;7.23;6.57;;;24.70;49.80;;;;;;5060001;28;20880;-88
2022/08/20 04:41:22;;;;;;;9.10;7.83;;;24.80;49.90;;;;;;5051051;28;20467;-88
2022/08/20 04:43:49;;;;;;;9.63;8.37;;;24.70;50.60;;;;;;5061041;28;20522;-89
2022/08/20 04:46:16;;;;;;;11.27;7.57;;;24.70;51.10;;;;;;5065430;28;20455;-87
2022/08/20 04:48:45;;;;;;;10.83;7.70;;;24.60;51.20;;;;;;5059997;28;20472;-88
2022/08/20 04:51:13;;;;;;;10.17;7.77;;;24.70;51.50;;;;;;5057269;28;20982;-93
2022/08/20 04:53:41;;;;;;;7.67;6.87;;;24.80;50.90;;;;;;5065964;28;20443;-87
2022/08/20 04:56:09;;;;;;;11.90;8.10;;;24.70;50.20;;;;;;5043748;28;20431;-86
2022/08/20 04:58:39;;;;;;;8.50;7.57;;;24.70;50.60;;;;;;5082816;28;20653;-87
2022/08/20 05:01:08;;;;;;;14.83;8.20;;;24.70;50.60;;;;;;5039017;28;20474;-87
2022/08/20 05:03:37;;;;;;;7.63;6.70;;;24.70;50.40;;;;;;5075193;28;20955;-90
2022/08/20 05:06:06;;;;;;;9.00;7.43;;;24.80;50.60;;;;;;5050567;28;20440;-85
2022/08/20 05:08:34;;;;;;;7.13;6.50;;;24.90;50.60;;;;;;5085770;28;20541;-84
2022/08/20 05:11:02;;;;;;;9.60;6.80;;;25.00;50.20;;;;;;5087363;28;20474;-85
2022/08/20 05:13:29;;;;;;;7.83;7.03;;;25.10;50.60;;;;;;5089866;28;22015;-86
2022/08/20 05:16:00;;;;;;;8.60;7.47;;;25.10;51.30;;;;;;5088254;28;20543;-89
2022/08/20 05:18:29;;;;;;;10.40;7.93;;;25.00;51.10;;;;;;5071572;28;20536;-87
2022/08/20 05:21:00;;;;;;;10.17;7.17;;;25.00;51.30;;;;;;5071448;28;20439;-88
2022/08/20 05:23:28;;;;;;;9.03;7.60;;;25.00;51.70;;;;;;5068959;28;20447;-87
2022/08/20 05:25:57;;;;;;;14.43;8.90;;;25.10;51.70;;;;;;5088246;28;20452;-88
2022/08/20 05:28:31;;;;;;;9.43;8.17;;;25.20;51.90;;;;;;5083781;28;20475;-88
2022/08/20 05:30:59;;;;;;;9.93;7.87;;;25.20;51.90;;;;;;5089583;28;20501;-86
2022/08/20 05:33:28;;;;;;;13.07;8.00;;;25.20;51.90;;;;;;5065387;28;20819;-85
2022/08/20 05:35:57;;;;;;;10.47;8.60;;;25.20;52.10;;;;;;5087702;28;20449;-88
2022/08/20 05:38:26;;;;;;;10.17;8.40;;;25.30;52.10;;;;;;5066285;28;20442;-86
2022/08/20 05:40:55;;;;;;;9.57;7.70;;;25.30;51.90;;;;;;5087632;28;20466;-86
2022/08/20 05:43:23;;;;;;;8.33;7.07;;;25.30;51.80;;;;;;5090260;28;20451;-86
2022/08/20 05:45:51;;;;;;;11.00;7.90;;;25.10;52.30;;;;;;5055503;28;20548;-86
2022/08/20 05:48:21;;;;;;;9.80;7.67;;;25.20;52.40;;;;;;5086293;28;20520;-88
2022/08/20 05:50:50;;;;;;;8.43;7.63;;;25.20;51.90;;;;;;5087869;28;20954;-86
2022/08/20 05:53:18;;;;;;;7.63;6.83;;;25.20;52.00;;;;;;5084220;28;20468;-86
2022/08/20 05:55:45;;;;;;;9.07;7.70;;;25.30;51.90;;;;;;5068135;28;20495;-87
2022/08/20 05:58:18;;;;;;;8.63;7.77;;;25.50;51.80;;;;;;5087534;28;20443;-88
2022/08/20 06:00:45;;;;;;;10.20;6.87;;;25.30;52.00;;;;;;5089370;28;20443;-86
2022/08/20 06:06:07;;;;;;;11.47;8.17;;;25.40;52.10;;;;;;5033319;28;20500;-88
2022/08/20 06:08:34;;;;;;;9.00;6.87;;;25.60;51.70;;;;;;5085666;28;20467;-87
2022/08/20 06:11:01;;;;;;;8.53;7.07;;;25.70;51.50;;;;;;5070047;28;20471;-88
2022/08/20 06:13:29;;;;;;;8.70;7.77;;;25.70;51.30;;;;;;5085756;28;20455;-87
2022/08/20 06:15:57;;;;;;;9.80;7.97;;;25.80;51.50;;;;;;5084662;28;20443;-86
2022/08/20 06:18:25;;;;;;;11.30;6.93;;;25.80;51.50;;;;;;5084741;28;20474;-86
2022/08/20 06:20:52;;;;;;;8.87;7.60;;;25.90;51.30;;;;;;5061766;28;20599;-86
2022/08/20 06:23:21;;;;;;;8.47;7.17;;;25.80;51.20;;;;;;5068858;28;20848;-86
2022/08/20 06:25:49;;;;;;;7.23;6.43;;;25.80;51.50;;;;;;5066197;28;20623;-88
2022/08/20 06:28:16;;;;;;;8.00;7.10;;;25.90;51.60;;;;;;5065461;28;21033;-87
2022/08/20 06:30:45;;;;;;;8.10;7.27;;;26.00;51.50;;;;;;5066965;28;20447;-86
2022/08/20 06:33:12;;;;;;;9.23;6.60;;;26.00;51.30;;;;;;5072208;28;20455;-86
2022/08/20 06:35:39;;;;;;;5.87;5.37;;;25.90;51.40;;;;;;5086106;28;20507;-88
2022/08/20 06:38:09;;;;;;;6.23;5.53;;;25.80;51.40;;;;;;5054316;28;20447;-87
2022/08/20 06:40:36;;;;;;;7.80;5.80;;;25.80;51.00;;;;;;5088738;28;20448;-87
2022/08/20 06:43:03;;;;;;;5.90;5.30;;;25.70;51.00;;;;;;5072801;28;20574;-89
2022/08/20 06:45:32;;;;;;;5.70;5.07;;;25.80;50.90;;;;;;5068569;28;20856;-87
2022/08/20 06:48:05;;;;;;;5.27;4.50;;;25.80;51.10;;;;;;5072779;28;20970;-89
2022/08/20 06:50:38;;;;;;;5.60;5.03;;;25.80;51.10;;;;;;5062410;28;21220;-88
2022/08/20 06:53:05;;;;;;;7.17;5.30;;;25.90;51.10;;;;;;5090188;28;20447;-86
2022/08/20 06:55:32;;;;;;;11.53;5.20;;;25.90;51.20;;;;;;5087450;28;20992;-88
2022/08/20 06:58:00;;;;;;;6.33;5.73;;;25.80;51.10;;;;;;5093467;28;20430;-88
2022/08/20 07:00:30;;;;;;;6.33;4.90;;;25.70;51.20;;;;;;5089718;28;20439;-89
2022/08/20 07:02:59;;;;;;;5.77;5.27;;;25.60;51.50;;;;;;5091356;28;20521;-89
2022/08/20 07:05:29;;;;;;;6.30;5.40;;;25.70;51.50;;;;;;5060723;28;20475;-89
2022/08/20 07:07:57;;;;;;;5.70;4.87;;;25.70;51.70;;;;;;5071652;28;20463;-92
2022/08/20 07:10:25;;;;;;;4.63;4.27;;;25.60;51.80;;;;;;5062695;28;20508;-87
2022/08/20 07:12:52;;;;;;;5.90;5.30;;;25.70;52.10;;;;;;5088772;28;20963;-91
2022/08/20 07:15:21;;;;;;;5.37;4.87;;;25.60;52.20;;;;;;5073374;28;20454;-91
2022/08/20 07:17:50;;;;;;;5.93;4.50;;;25.70;52.20;;;;;;5070439;28;20456;-88
2022/08/20 07:20:18;;;;;;;8.67;4.40;;;25.70;52.10;;;;;;5071533;28;20455;-88
2022/08/20 07:22:46;;;;;;;5.93;4.93;;;25.80;52.10;;;;;;5081687;28;20559;-91
2022/08/20 07:25:16;;;;;;;5.10;4.70;;;25.80;52.10;;;;;;5071405;28;20436;-88
2022/08/20 07:27:44;;;;;;;9.83;4.93;;;25.60;52.30;;;;;;5061062;28;20467;-91
2022/08/20 07:32:59;;;;;;;6.37;5.77;;;25.50;53.30;;;;;;5091103;28;20478;-89
2022/08/20 07:35:26;;;;;;;4.50;4.10;;;25.50;52.90;;;;;;5070513;28;21205;-90
2022/08/20 07:37:55;;;;;;;5.30;4.80;;;25.40;53.40;;;;;;5074766;28;20439;-90
2022/08/20 07:40:26;;;;;;;8.07;5.23;;;25.40;53.60;;;;;;5062461;28;20460;-90
2022/08/20 07:42:54;;;;;;;8.47;5.10;;;25.40;54.30;;;;;;5072992;28;20479;-92
2022/08/20 07:45:21;;;;;;;5.50;5.00;;;25.50;55.40;;;;;;5054483;28;20836;-87
2022/08/20 07:47:49;;;;;;;5.63;5.13;;;25.60;56.40;;;;;;5074628;28;20498;-88
2022/08/20 07:50:19;;;;;;;6.20;5.60;;;25.60;56.40;;;;;;5087878;28;20505;-90
2022/08/20 07:52:46;;;;;;;6.30;5.70;;;25.60;57.10;;;;;;5046192;28;20490;-89
2022/08/20 07:55:16;;;;;;;8.60;6.10;;;25.70;57.60;;;;;;5073453;28;20471;-87
2022/08/20 07:57:46;;;;;;;8.33;6.27;;;25.80;57.80;;;;;;5067530;28;20462;-87
2022/08/20 08:00:14;;;;;;;8.03;6.47;;;25.90;58.20;;;;;;5066149;28;20435;-87
2022/08/20 08:02:41;;;;;;;8.97;6.70;;;25.90;58.40;;;;;;5068152;28;20531;-87
2022/08/20 08:05:09;;;;;;;7.73;6.23;;;25.80;58.00;;;;;;5079725;28;20479;-87
2022/08/20 08:07:38;;;;;;;7.90;6.50;;;25.70;58.70;;;;;;5064472;28;20447;-87
2022/08/20 08:10:08;;;;;;;11.30;7.30;;;25.70;58.90;;;;;;5058517;28;20526;-86
2022/08/20 08:12:40;;;;;;;7.83;6.87;;;25.50;59.30;;;;;;5093199;28;20496;-86
2022/08/20 08:15:12;;;;;;;8.03;6.30;;;25.50;59.40;;;;;;5060801;28;20856;-86
2022/08/20 08:17:39;;;;;;;6.90;6.20;;;25.50;59.50;;;;;;5082173;28;20536;-90
2022/08/20 08:20:08;;;;;;;11.53;7.10;;;25.60;59.60;;;;;;5065956;28;20552;-87
2022/08/20 08:22:36;;;;;;;6.93;6.30;;;25.80;59.10;;;;;;5074563;28;20558;-87
2022/08/20 08:25:04;;;;;;;6.50;5.83;;;25.90;58.80;;;;;;5076593;28;20487;-90
2022/08/20 08:27:33;;;;;;;6.47;5.80;;;25.90;58.80;;;;;;5049580;28;20439;-87
2022/08/20 08:30:02;;;;;;;8.47;6.80;;;26.10;59.10;;;;;;5073734;28;20436;-87
2022/08/20 08:32:31;;;;;;;7.13;6.40;;;26.20;58.90;;;;;;5089566;28;20525;-89
2022/08/20 08:34:58;;;;;;;11.33;7.10;;;26.30;58.90;;;;;;5056978;28;20454;-87
2022/08/20 08:37:25;;;;;;;8.73;6.80;;;26.30;59.00;;;;;;5056675;28;20471;-87
2022/08/20 08:39:52;;;;;;;6.83;6.13;;;26.30;59.10;;;;;;5074957;28;20539;-87
2022/08/20 08:42:34;;;;;;;6.97;6.27;;;26.30;58.80;;;;;;5084764;28;21238;-87
2022/08/20 08:45:03;;;;;;;9.27;6.07;;;26.30;58.80;;;;;;5068765;28;20500;-89
2022/08/20 08:47:36;;;;;;;7.20;6.23;;;26.30;58.30;;;;;;5075191;28;20545;-87
2022/08/20 08:50:05;;;;;;;7.20;6.03;;;26.40;57.90;;;;;;5072875;28;20489;-88
2022/08/20 08:52:36;;;;;;;7.53;6.10;;;26.40;57.60;;;;;;5075046;28;20759;-86
2022/08/20 08:55:07;;;;;;;7.63;6.83;;;26.30;57.80;;;;;;5078046;28;20875;-88
2022/08/20 08:57:34;;;;;;;6.83;5.80;;;26.20;58.20;;;;;;5083643;28;21264;-86
2022/08/20 09:00:08;;;;;;;6.13;5.53;;;26.20;58.30;;;;;;5072215;28;20965;-86
2022/08/20 09:02:37;;;;;;;7.00;6.30;;;26.30;58.20;;;;;;5076677;28;20459;-86
2022/08/20 09:05:14;;;;;;;7.90;6.73;;;26.30;58.10;;;;;;5075532;28;20431;-87
2022/08/20 09:07:45;;;;;;;8.00;6.60;;;26.30;57.50;;;;;;5074381;28;20796;-86
2022/08/20 09:10:12;;;;;;;8.27;6.47;;;26.10;58.10;;;;;;5070227;28;20446;-85
2022/08/20 09:12:39;;;;;;;7.13;6.43;;;26.00;58.90;;;;;;5073985;28;20459;-87
2022/08/20 09:15:09;;;;;;;8.23;6.57;;;26.00;58.90;;;;;;5058283;28;20459;-86
2022/08/20 09:17:36;;;;;;;7.20;6.40;;;26.00;58.90;;;;;;5073116;28;20856;-87
2022/08/20 09:20:04;;;;;;;6.83;6.10;;;26.10;58.70;;;;;;5089953;28;20536;-88
2022/08/20 09:22:32;;;;;;;8.20;6.43;;;25.90;59.20;;;;;;5057554;28;20521;-85
2022/08/20 09:25:01;;;;;;;7.70;6.13;;;25.90;58.90;;;;;;5070975;28;20542;-88
2022/08/20 09:27:28;;;;;;;7.80;6.80;;;25.70;59.00;;;;;;5094900;28;20462;-87
2022/08/20 09:29:55;;;;;;;9.40;6.67;;;25.60;59.10;;;;;;5055655;28;21025;-90
2022/08/20 09:32:24;;;;;;;8.13;6.60;;;25.60;59.80;;;;;;5086562;28;20566;-89
2022/08/20 09:34:55;;;;;;;6.73;6.03;;;25.60;60.00;;;;;;5087877;28;20537;-90
2022/08/20 09:37:23;;;;;;;6.27;5.67;;;25.70;59.90;;;;;;5087262;28;20680;-89
2022/08/20 09:39:50;;;;;;;11.10;5.90;;;25.90;60.00;;;;;;5086993;28;20445;-88
2022/08/20 09:42:20;;;;;;;7.27;6.17;;;25.90;60.80;;;;;;5069068;28;21181;-89
2022/08/20 09:44:48;;;;;;;7.93;7.13;;;26.00;59.80;;;;;;5066868;28;20442;-88
2022/08/20 09:47:16;;;;;;;7.70;6.23;;;26.10;59.60;;;;;;5069963;28;20777;-90
2022/08/20 09:49:44;;;;;;;8.10;6.80;;;26.30;59.20;;;;;;5068628;28;20475;-90
2022/08/20 09:52:21;;;;;;;6.90;6.20;;;26.40;58.80;;;;;;5084550;28;20656;-88
2022/08/20 09:54:49;;;;;;;8.23;7.17;;;26.50;59.10;;;;;;5086411;28;20476;-90
2022/08/20 09:57:16;;;;;;;7.73;6.93;;;26.60;59.00;;;;;;5066653;28;20511;-89
2022/08/20 09:59:46;;;;;;;8.43;7.63;;;26.70;58.90;;;;;;5090163;28;20845;-89
2022/08/20 10:02:13;;;;;;;7.50;6.60;;;26.80;58.90;;;;;;5088078;28;21001;-89
2022/08/20 10:04:40;;;;;;;8.07;7.30;;;26.80;59.00;;;;;;5066775;28;20582;-90
2022/08/20 10:07:09;;;;;;;7.50;6.80;;;26.70;58.60;;;;;;5088240;28;21454;-91
2022/08/20 10:09:37;;;;;;;10.50;8.13;;;26.70;58.90;;;;;;5088022;28;21108;-89
2022/08/20 10:12:04;;;;;;;8.57;7.43;;;26.80;59.10;;;;;;5088466;28;20478;-88
2022/08/20 10:14:32;;;;;;;8.03;7.33;;;26.70;59.20;;;;;;5088070;28;20446;-89
2022/08/20 10:17:01;;;;;;;9.87;7.57;;;26.40;59.20;;;;;;5093210;28;20833;-88
2022/08/20 10:19:30;;;;;;;10.93;7.70;;;26.60;59.40;;;;;;5072137;28;20447;-91
2022/08/20 10:21:58;;;;;;;8.63;7.73;;;26.60;59.20;;;;;;5091920;28;20462;-89
2022/08/20 10:24:27;;;;;;;7.57;6.87;;;26.70;59.40;;;;;;5090092;28;20443;-90
2022/08/20 10:26:56;;;;;;;8.90;7.07;;;26.70;58.80;;;;;;5093050;28;20487;-90
2022/08/20 10:29:23;;;;;;;7.63;6.90;;;26.80;59.30;;;;;;5056620;28;20470;-88
2022/08/20 10:31:50;;;;;;;7.70;7.00;;;27.00;58.80;;;;;;5080899;28;21104;-92
2022/08/20 10:34:17;;;;;;;8.40;6.57;;;27.00;57.90;;;;;;5049918;28;20905;-91
2022/08/20 10:36:45;;;;;;;6.10;5.40;;;27.10;58.10;;;;;;5059634;28;20479;-93
2022/08/20 10:39:13;;;;;;;6.17;5.60;;;27.20;57.70;;;;;;5094485;28;20450;-90
2022/08/20 10:41:41;;;;;;;5.07;4.57;;;27.40;57.20;;;;;;5093524;28;21005;-92
2022/08/20 10:44:09;;;;;;;6.50;4.77;;;27.70;56.70;;;;;;5062940;28;20469;-94
2022/08/20 10:46:36;;;;;;;5.00;4.60;;;27.80;55.50;;;;;;5045594;28;20538;-90
2022/08/20 10:49:03;;;;;;;5.20;4.70;;;27.80;55.50;;;;;;5064145;28;20758;-92
2022/08/20 10:51:30;;;;;;;5.73;5.13;;;28.00;54.40;;;;;;5073238;28;20467;-89
2022/08/20 10:53:57;;;;;;;5.83;5.23;;;28.20;53.50;;;;;;5087534;28;20454;-92
2022/08/20 10:56:24;;;;;;;6.47;5.47;;;28.30;53.80;;;;;;5088929;28;20450;-90
2022/08/20 10:58:53;;;;;;;5.30;4.90;;;28.40;53.00;;;;;;5087435;28;20922;-89
2022/08/20 11:01:20;;;;;;;5.27;4.77;;;28.50;53.20;;;;;;5065364;28;21218;-88
2022/08/20 11:03:47;;;;;;;5.33;4.83;;;28.50;52.80;;;;;;5088170;28;20462;-88
2022/08/20 11:06:14;;;;;;;5.97;5.47;;;28.70;52.80;;;;;;5087074;28;20447;-90
2022/08/20 11:08:41;;;;;;;5.90;5.40;;;28.80;52.00;;;;;;5087230;28;20439;-89
2022/08/20 11:11:08;;;;;;;5.27;4.80;;;29.00;51.90;;;;;;5083039;28;20468;-89
2022/08/20 11:13:36;;;;;;;7.73;5.40;;;29.00;51.00;;;;;;5085016;28;20460;-88
2022/08/20 11:16:05;;;;;;;6.67;4.57;;;29.10;51.30;;;;;;5086799;28;20779;-89
2022/08/20 11:18:32;;;;;;;4.87;4.47;;;29.40;50.50;;;;;;5067415;28;20925;-88
2022/08/20 11:21:00;;;;;;;4.57;4.23;;;29.50;50.00;;;;;;5085551;28;20467;-86
2022/08/20 11:23:27;;;;;;;4.87;4.47;;;29.30;49.80;;;;;;5082038;28;20542;-87
2022/08/20 11:25:54;;;;;;;4.50;4.20;;;29.50;49.60;;;;;;5083948;28;20974;-86
2022/08/20 11:28:21;;;;;;;5.30;4.80;;;29.70;50.10;;;;;;5083631;28;20452;-85
2022/08/20 11:30:49;;;;;;;4.50;4.10;;;29.90;48.80;;;;;;5087454;28;21271;-88
2022/08/20 11:33:17;;;;;;;4.97;4.57;;;29.80;47.90;;;;;;5087107;28;20662;-87
2022/08/20 11:35:44;;;;;;;4.73;4.23;;;29.70;48.10;;;;;;5071287;28;20438;-85
2022/08/20 11:38:12;;;;;;;5.07;4.60;;;29.80;47.90;;;;;;5087564;28;20455;-86
2022/08/20 11:40:39;;;;;;;4.20;3.90;;;29.90;48.10;;;;;;5086484;28;21155;-85
2022/08/20 11:43:06;;;;;;;4.20;3.80;;;29.90;47.80;;;;;;5091732;28;20483;-86
2022/08/20 11:45:33;;;;;;;4.40;4.00;;;30.30;48.10;;;;;;5081683;28;20457;-87
2022/08/20 11:48:00;;;;;;;5.93;4.30;;;30.50;47.60;;;;;;5069353;28;20483;-86
2022/08/20 11:50:29;;;;;;;4.43;4.03;;;30.50;46.40;;;;;;5087903;28;20506;-86
2022/08/20 11:52:56;;;;;;;4.10;3.70;;;30.40;46.00;;;;;;5071877;28;20463;-85
2022/08/20 11:55:23;;;;;;;4.33;3.93;;;30.70;45.70;;;;;;5087860;28;20443;-86
2022/08/20 11:57:50;;;;;;;4.23;3.87;;;31.00;44.90;;;;;;5089872;28;20447;-86
2022/08/20 12:00:21;;;;;;;4.17;3.80;;;30.90;43.90;;;;;;5091626;28;20471;-87
2022/08/20 12:02:50;;;;;;;4.90;4.60;;;30.80;44.50;;;;;;5090543;28;20900;-86
2022/08/20 12:05:19;;;;;;;4.50;3.60;;;30.60;44.80;;;;;;5080175;28;20534;-86
2022/08/20 12:07:48;;;;;;;4.10;3.80;;;30.40;45.50;;;;;;5090017;28;20515;-86
2022/08/20 12:10:15;;;;;;;3.80;3.50;;;30.30;45.30;;;;;;5070029;28;21424;-86
2022/08/20 12:12:42;;;;;;;3.60;3.30;;;30.30;45.50;;;;;;5089127;28;20525;-86
2022/08/20 12:15:10;;;;;;;2.93;2.73;;;30.30;45.70;;;;;;5069408;28;20836;-87
2022/08/20 12:17:38;;;;;;;2.87;2.60;;;30.20;43.70;;;;;;5071227;28;20458;-87
2022/08/20 12:20:09;;;;;;;2.60;2.47;;;30.20;44.50;;;;;;5071916;28;20907;-86
2022/08/20 12:22:37;;;;;;;3.00;2.80;;;30.00;44.50;;;;;;5095441;28;20454;-87
2022/08/20 12:25:07;;;;;;;3.50;3.20;;;29.90;44.60;;;;;;5061074;28;20953;-88
2022/08/20 12:27:35;;;;;;;6.23;4.20;;;30.00;45.00;;;;;;5086759;28;21197;-87
2022/08/20 12:30:06;;;;;;;3.97;3.67;;;30.00;45.30;;;;;;5073969;28;21067;-87
2022/08/20 12:32:34;;;;;;;3.80;3.50;;;30.00;45.10;;;;;;5083736;28;20502;-87
2022/08/20 12:35:02;;;;;;;3.57;3.27;;;30.00;45.60;;;;;;5068624;28;20534;-86
2022/08/20 12:37:31;;;;;;;3.53;3.23;;;29.90;46.80;;;;;;5059940;28;20531;-86
2022/08/20 12:40:00;;;;;;;4.17;3.87;;;29.80;46.30;;;;;;5076042;28;20460;-86
2022/08/20 12:42:30;;;;;;;3.53;3.27;;;29.50;47.20;;;;;;5072070;28;20463;-87
2022/08/20 12:44:57;;;;;;;4.50;2.83;;;29.40;47.30;;;;;;5094083;28;20438;-87
2022/08/20 12:47:27;;;;;;;3.17;2.87;;;29.40;46.70;;;;;;5093098;28;20500;-87
2022/08/20 12:49:56;;;;;;;2.80;2.60;;;29.30;46.30;;;;;;5068696;28;20497;-87
2022/08/20 12:52:25;;;;;;;2.07;1.97;;;29.30;46.10;;;;;;5059626;28;20470;-90
2022/08/20 12:54:52;;;;;;;2.50;2.30;;;29.20;45.10;;;;;;5064507;28;21017;-86
2022/08/20 12:57:27;;;;;;;2.20;2.00;;;29.30;44.40;;;;;;5094315;28;20810;-90
2022/08/20 12:59:55;;;;;;;2.60;2.40;;;29.30;44.40;;;;;;5074192;28;20809;-86